Time;durP1;ratioP1;P1;durP2;ratioP2;P2;SDS_P1;SDS_P2;PMS_P1;PMS_P2;Temp;Humidity;BMP_temperature;BMP_pressure;BME280_temperature;BME280_humidity;BME280_pressure;Samples;Min_cycle;Max_cycle;Signal;HPM_P1;HPM_P2
2022/05/11 00:01:34;;;;;;;11.55;4.38;;;17.80;90.20;;;;;;5078090;28;20460;-68
2022/05/11 00:04:02;;;;;;;14.82;3.92;;;17.80;90.20;;;;;;5076041;28;20039;-69
2022/05/11 00:06:29;;;;;;;15.95;4.68;;;17.80;90.20;;;;;;5072613;28;20949;-68
2022/05/11 00:08:57;;;;;;;20.63;4.10;;;17.80;90.10;;;;;;5077059;28;20039;-69
2022/05/11 00:11:27;;;;;;;19.40;4.30;;;17.80;90.10;;;;;;5070955;28;20024;-69
2022/05/11 00:13:55;;;;;;;11.43;4.18;;;17.80;90.10;;;;;;5077596;28;20042;-68
2022/05/11 00:16:22;;;;;;;14.68;3.58;;;17.80;90.00;;;;;;5077537;28;20025;-68
2022/05/11 00:18:48;;;;;;;16.50;3.95;;;17.80;90.00;;;;;;5077872;28;20032;-68
2022/05/11 00:21:14;;;;;;;12.90;3.03;;;17.70;89.90;;;;;;5072639;28;20063;-68
2022/05/11 00:23:41;;;;;;;12.32;3.58;;;17.70;89.90;;;;;;5072574;28;20123;-69
2022/05/11 00:26:10;;;;;;;9.48;3.97;;;17.70;89.80;;;;;;5074066;28;20044;-68
2022/05/11 00:28:37;;;;;;;11.35;3.67;;;17.70;89.70;;;;;;5073668;28;20020;-68
2022/05/11 00:31:03;;;;;;;14.18;3.85;;;17.70;89.60;;;;;;5083651;28;20028;-69
2022/05/11 00:33:30;;;;;;;18.27;4.60;;;17.70;89.50;;;;;;5081607;28;20074;-69
2022/05/11 00:35:57;;;;;;;16.02;3.80;;;17.70;89.40;;;;;;5081054;28;20506;-68
2022/05/11 00:38:27;;;;;;;12.52;4.95;;;17.60;89.30;;;;;;5081311;28;20028;-68
2022/05/11 00:41:00;;;;;;;11.77;3.75;;;17.60;89.30;;;;;;5083960;28;20055;-67
2022/05/11 00:43:42;;;;;;;9.80;3.63;;;17.60;89.10;;;;;;5084658;28;20042;-68
2022/05/11 00:46:14;;;;;;;14.15;3.97;;;17.60;89.10;;;;;;5077387;28;20024;-68
2022/05/11 00:51:34;;;;;;;13.07;3.70;;;17.60;89.00;;;;;;5078944;28;20104;-68
2022/05/11 00:54:02;;;;;;;10.55;3.05;;;17.50;88.90;;;;;;5078233;28;20013;-68
2022/05/11 00:56:29;;;;;;;14.48;3.70;;;17.50;88.90;;;;;;5083596;28;20016;-69
2022/05/11 00:59:08;;;;;;;12.80;3.58;;;17.50;88.80;;;;;;5077639;28;20115;-68
2022/05/11 01:01:35;;;;;;;10.55;3.20;;;17.50;88.70;;;;;;5080361;28;20081;-68
2022/05/11 01:04:22;;;;;;;13.63;3.88;;;17.50;88.70;;;;;;5076762;28;20082;-69
2022/05/11 01:06:48;;;;;;;13.52;3.10;;;17.50;88.60;;;;;;5079721;28;20024;-68
2022/05/11 01:09:15;;;;;;;15.88;3.88;;;17.50;88.60;;;;;;5082981;28;20039;-69
2022/05/11 01:11:49;;;;;;;9.10;3.08;;;17.50;88.60;;;;;;5078021;28;20032;-69
2022/05/11 01:14:20;;;;;;;10.23;2.53;;;17.50;88.60;;;;;;5082812;28;20024;-68
2022/05/11 01:16:47;;;;;;;13.02;4.00;;;17.40;88.60;;;;;;5087724;28;20077;-69
2022/05/11 01:19:31;;;;;;;14.07;4.13;;;17.40;88.60;;;;;;5086898;28;20024;-68
2022/05/11 01:22:03;;;;;;;11.55;5.07;;;17.50;88.70;;;;;;5040671;28;20571;-69
2022/05/11 01:24:40;;;;;;;16.15;6.03;;;17.40;88.60;;;;;;5041799;28;20094;-68
2022/05/11 01:27:22;;;;;;;15.10;6.15;;;17.40;88.70;;;;;;5041520;28;20392;-69
2022/05/11 01:29:49;;;;;;;14.73;5.88;;;17.40;88.70;;;;;;5041756;28;20031;-70
2022/05/11 01:32:15;;;;;;;23.40;6.00;;;17.40;88.80;;;;;;5042994;28;20021;-69
2022/05/11 01:34:42;;;;;;;21.60;5.90;;;17.40;88.80;;;;;;5041216;28;20037;-69
2022/05/11 01:37:08;;;;;;;15.25;5.32;;;17.40;88.90;;;;;;5042301;28;20017;-69
2022/05/11 01:39:35;;;;;;;11.35;3.97;;;17.40;89.10;;;;;;5042862;28;20112;-69
2022/05/11 01:42:01;;;;;;;10.73;3.75;;;17.40;89.30;;;;;;5041398;28;20021;-69
2022/05/11 01:44:28;;;;;;;12.35;3.83;;;17.40;89.40;;;;;;5046754;28;20038;-69
2022/05/11 01:46:59;;;;;;;13.35;3.72;;;17.40;89.50;;;;;;5040193;28;20059;-69
2022/05/11 01:49:27;;;;;;;13.80;4.50;;;17.40;89.50;;;;;;5041032;28;20037;-69
2022/05/11 01:51:54;;;;;;;15.82;4.10;;;17.40;89.60;;;;;;5046801;28;20029;-69
2022/05/11 01:55:00;;;;;;;11.10;4.68;;;17.40;89.70;;;;;;5045277;28;20036;-70
2022/05/11 01:57:26;;;;;;;14.93;4.72;;;17.40;89.80;;;;;;5042894;28;20092;-69
2022/05/11 01:59:53;;;;;;;14.27;3.67;;;17.40;89.90;;;;;;5039154;28;20037;-69
2022/05/11 02:02:19;;;;;;;15.57;3.88;;;17.40;90.00;;;;;;5045020;28;20032;-69
2022/05/11 02:07:49;;;;;;;21.77;4.65;;;17.40;90.00;;;;;;5043996;28;20029;-69
2022/05/11 02:10:19;;;;;;;15.45;4.68;;;17.40;90.10;;;;;;5043594;28;20115;-70
2022/05/11 02:12:46;;;;;;;25.60;4.28;;;17.40;90.10;;;;;;5042022;28;20010;-69
2022/05/11 02:15:14;;;;;;;16.15;4.68;;;17.40;90.40;;;;;;5050779;28;20129;-69
2022/05/11 02:17:45;;;;;;;20.05;4.18;;;17.40;90.10;;;;;;5045280;28;20037;-69
2022/05/11 02:20:15;;;;;;;14.02;3.83;;;17.40;90.20;;;;;;5061372;28;20040;-69
2022/05/11 02:22:42;;;;;;;17.20;4.53;;;17.40;90.20;;;;;;5080395;28;20043;-69
2022/05/11 02:25:10;;;;;;;15.25;3.45;;;17.40;90.20;;;;;;5088247;28;20020;-69
2022/05/11 02:27:37;;;;;;;22.75;4.78;;;17.40;90.20;;;;;;5083048;28;20061;-69
2022/05/11 02:30:05;;;;;;;14.88;5.55;;;17.40;90.20;;;;;;5084111;28;20065;-68
2022/05/11 02:32:31;;;;;;;18.42;4.22;;;17.40;90.20;;;;;;5084286;28;20024;-68
2022/05/11 02:35:13;;;;;;;17.35;4.68;;;17.40;90.20;;;;;;5085548;28;20142;-69
2022/05/11 02:37:55;;;;;;;14.38;4.45;;;17.40;90.20;;;;;;5082293;28;20024;-69
2022/05/11 02:40:27;;;;;;;20.83;4.60;;;17.40;90.20;;;;;;5086653;28;20048;-69
2022/05/11 02:42:54;;;;;;;19.23;5.22;;;17.40;90.20;;;;;;5082344;28;20577;-67
2022/05/11 02:45:22;;;;;;;26.25;6.10;;;17.40;90.20;;;;;;5085855;28;20459;-67
2022/05/11 02:47:50;;;;;;;18.48;6.03;;;17.40;90.20;;;;;;5084223;28;20020;-68
2022/05/11 02:50:20;;;;;;;20.05;7.57;;;17.40;90.20;;;;;;5081091;28;20031;-69
2022/05/11 02:52:47;;;;;;;22.00;5.03;;;17.40;90.20;;;;;;5082118;28;20038;-69
2022/05/11 02:55:14;;;;;;;16.13;5.07;;;17.40;90.20;;;;;;5078857;28;20013;-69
2022/05/11 02:57:41;;;;;;;16.73;5.93;;;17.40;90.20;;;;;;5081117;28;20012;-69
2022/05/11 03:00:10;;;;;;;19.92;5.82;;;17.40;90.20;;;;;;5085601;28;20019;-69
2022/05/11 03:02:36;;;;;;;26.90;6.10;;;17.30;90.10;;;;;;5084985;28;20575;-69
2022/05/11 03:05:04;;;;;;;21.67;6.03;;;17.40;90.10;;;;;;5078233;28;20077;-69
2022/05/11 03:07:30;;;;;;;17.58;5.00;;;17.30;90.10;;;;;;5086372;28;20025;-68
2022/05/11 03:09:57;;;;;;;21.40;5.10;;;17.30;90.00;;;;;;5085549;28;20066;-69
2022/05/11 03:12:24;;;;;;;14.35;4.03;;;17.30;90.00;;;;;;5082546;28;21464;-67
2022/05/11 03:14:54;;;;;;;14.25;3.90;;;17.30;90.00;;;;;;5082830;28;20036;-68
2022/05/11 03:17:21;;;;;;;12.85;3.65;;;17.30;90.00;;;;;;5078889;28;20840;-68
2022/05/11 03:19:48;;;;;;;16.85;4.78;;;17.30;89.80;;;;;;5083202;28;20040;-68
2022/05/11 03:22:14;;;;;;;16.48;5.22;;;17.30;89.70;;;;;;5085469;28;20060;-68
2022/05/11 03:24:41;;;;;;;14.43;4.10;;;17.30;89.60;;;;;;5082922;28;20105;-68
2022/05/11 03:27:07;;;;;;;13.00;4.38;;;17.20;89.50;;;;;;5084047;28;20031;-68
2022/05/11 03:29:34;;;;;;;16.77;3.53;;;17.20;89.60;;;;;;5083440;28;20019;-69
2022/05/11 03:34:47;;;;;;;12.27;3.58;;;17.20;89.60;;;;;;5081045;28;20039;-69
2022/05/11 03:37:16;;;;;;;12.98;5.05;;;17.20;89.60;;;;;;5087742;28;20036;-68
2022/05/11 03:39:43;;;;;;;9.77;3.08;;;17.20;89.60;;;;;;5082014;28;20024;-69
2022/05/11 03:42:16;;;;;;;12.13;2.65;;;17.10;89.70;;;;;;5084701;28;20091;-69
2022/05/11 03:44:42;;;;;;;23.98;3.72;;;17.20;89.90;;;;;;5081143;28;20036;-69
2022/05/11 03:47:09;;;;;;;16.08;3.20;;;17.20;90.00;;;;;;5084211;28;20061;-69
2022/05/11 03:49:35;;;;;;;11.98;2.67;;;17.20;90.00;;;;;;5079851;28;20531;-69
2022/05/11 03:52:03;;;;;;;10.25;3.33;;;17.20;90.00;;;;;;5080963;28;20024;-69
2022/05/11 03:54:29;;;;;;;15.80;3.00;;;17.20;90.00;;;;;;5081390;28;20027;-69
2022/05/11 03:56:56;;;;;;;14.35;2.85;;;17.20;90.00;;;;;;5081704;28;20037;-69
2022/05/11 03:59:22;;;;;;;8.32;4.13;;;17.20;90.20;;;;;;5079846;28;20391;-69
2022/05/11 04:01:49;;;;;;;20.10;4.43;;;17.20;90.30;;;;;;5084901;28;20433;-68
2022/05/11 04:04:15;;;;;;;13.98;4.03;;;17.20;90.30;;;;;;5082719;28;20073;-69
2022/05/11 04:06:43;;;;;;;14.07;3.83;;;17.20;90.40;;;;;;5084763;28;20103;-69
2022/05/11 04:09:10;;;;;;;17.13;4.07;;;17.20;90.40;;;;;;5081243;28;20026;-70
2022/05/11 04:11:36;;;;;;;13.75;3.58;;;17.20;90.40;;;;;;5080792;28;20043;-70
2022/05/11 04:14:03;;;;;;;20.40;5.40;;;17.20;90.40;;;;;;5080018;28;20468;-69
2022/05/11 04:16:30;;;;;;;18.35;5.82;;;17.30;90.70;;;;;;5079841;28;20020;-69
2022/05/11 04:18:56;;;;;;;14.77;5.82;;;17.30;90.70;;;;;;5078946;28;20390;-72
2022/05/11 04:21:23;;;;;;;18.77;9.25;;;17.30;90.60;;;;;;5083816;28;20040;-68
2022/05/11 04:23:49;;;;;;;49.33;22.63;;;17.30;90.60;;;;;;5083725;28;20032;-69
2022/05/11 04:26:16;;;;;;;45.83;25.85;;;17.30;90.70;;;;;;5080376;28;20027;-69
2022/05/11 04:28:43;;;;;;;28.40;16.70;;;17.30;90.80;;;;;;5079737;28;20081;-71
2022/05/11 04:31:12;;;;;;;17.05;9.18;;;17.30;90.80;;;;;;5078737;28;20048;-70
2022/05/11 04:33:39;;;;;;;17.25;7.22;;;17.30;90.90;;;;;;5081527;28;20031;-72
2022/05/11 04:36:06;;;;;;;14.38;6.57;;;17.30;90.80;;;;;;5079297;28;20107;-74
2022/05/11 04:38:33;;;;;;;16.38;5.55;;;17.30;90.80;;;;;;5084428;28;20011;-72
2022/05/11 04:41:00;;;;;;;12.88;4.53;;;17.40;90.70;;;;;;5083970;28;20020;-69
2022/05/11 04:43:27;;;;;;;19.35;5.63;;;17.30;90.70;;;;;;5079870;28;20081;-68
2022/05/11 04:45:57;;;;;;;17.75;9.13;;;17.30;90.70;;;;;;5082879;28;20369;-68
2022/05/11 04:48:24;;;;;;;26.88;17.58;;;17.30;90.80;;;;;;5084202;28;20502;-68
2022/05/11 04:50:51;;;;;;;27.85;10.82;;;17.30;90.80;;;;;;5078740;28;20020;-69
2022/05/11 04:53:18;;;;;;;24.27;9.60;;;17.30;90.90;;;;;;5081305;28;20024;-68
2022/05/11 04:55:46;;;;;;;17.25;8.00;;;17.30;90.80;;;;;;5083075;28;20052;-68
2022/05/11 04:58:13;;;;;;;13.43;6.72;;;17.30;90.80;;;;;;5079608;28;20070;-69
2022/05/11 05:00:39;;;;;;;13.05;5.43;;;17.30;90.70;;;;;;5082663;28;20043;-68
2022/05/11 05:03:11;;;;;;;11.65;5.15;;;17.30;90.60;;;;;;5083061;28;20042;-68
2022/05/11 05:05:38;;;;;;;11.07;4.88;;;17.30;90.50;;;;;;5081275;28;20046;-69
2022/05/11 05:08:06;;;;;;;9.02;4.38;;;17.30;90.50;;;;;;5082940;28;20463;-70
2022/05/11 05:10:33;;;;;;;8.75;3.50;;;17.20;90.40;;;;;;5083434;28;20019;-68
2022/05/11 05:13:08;;;;;;;14.15;4.05;;;17.20;90.40;;;;;;5083137;28;20028;-69
2022/05/11 05:15:37;;;;;;;15.65;4.38;;;17.20;90.40;;;;;;5081210;28;20451;-69
2022/05/11 05:18:06;;;;;;;9.25;3.53;;;17.20;90.40;;;;;;5085825;28;20047;-67
2022/05/11 05:20:34;;;;;;;9.40;2.85;;;17.20;90.70;;;;;;5081128;28;20091;-68
2022/05/11 05:23:01;;;;;;;11.55;3.55;;;17.20;90.30;;;;;;5081081;28;20118;-69
2022/05/11 05:25:28;;;;;;;6.15;2.58;;;17.20;90.30;;;;;;5085404;28;20028;-68
2022/05/11 05:31:04;;;;;;;11.55;3.22;;;17.20;90.20;;;;;;5084276;28;20035;-67
2022/05/11 05:33:28;;;;;;;5.68;2.65;;;17.20;90.20;;;;;;5091977;28;20031;-67
2022/05/11 05:35:55;;;;;;;4.90;2.83;;;17.20;90.10;;;;;;5082250;28;20019;-67
2022/05/11 05:38:21;;;;;;;5.13;2.53;;;17.20;90.00;;;;;;5083572;28;20059;-67
2022/05/11 05:40:48;;;;;;;4.97;1.88;;;17.10;90.00;;;;;;5085429;28;20115;-67
2022/05/11 05:43:14;;;;;;;8.43;2.55;;;17.20;90.00;;;;;;5082025;28;20029;-67
2022/05/11 05:45:46;;;;;;;6.18;2.85;;;17.20;90.00;;;;;;5080850;28;20020;-67
2022/05/11 05:48:12;;;;;;;7.72;2.72;;;17.20;90.00;;;;;;5084274;28;20470;-68
2022/05/11 05:50:39;;;;;;;12.80;1.77;;;17.20;89.90;;;;;;5086331;28;20016;-69
2022/05/11 05:53:05;;;;;;;7.28;2.78;;;17.20;89.90;;;;;;5082240;28;20043;-67
2022/05/11 05:55:31;;;;;;;11.75;3.03;;;17.20;89.70;;;;;;5086374;28;20028;-69
2022/05/11 05:57:59;;;;;;;12.35;2.38;;;17.20;89.70;;;;;;5082938;28;20020;-67
2022/05/11 06:00:26;;;;;;;7.32;2.58;;;17.10;89.60;;;;;;5082826;28;20020;-70
2022/05/11 06:02:55;;;;;;;10.05;2.65;;;17.10;89.50;;;;;;5083605;28;20044;-68
2022/05/11 06:05:22;;;;;;;8.15;2.22;;;17.10;89.40;;;;;;5084023;28;20020;-68
2022/05/11 06:07:48;;;;;;;13.80;2.35;;;17.20;89.50;;;;;;5085843;28;20046;-67
2022/05/11 06:10:15;;;;;;;6.60;2.00;;;17.20;89.50;;;;;;5085871;28;20036;-69
2022/05/11 06:12:41;;;;;;;8.18;2.72;;;17.20;89.50;;;;;;5083535;28;20430;-68
2022/05/11 06:15:09;;;;;;;10.98;2.70;;;17.20;89.50;;;;;;5082719;28;20024;-68
2022/05/11 06:17:36;;;;;;;7.18;2.47;;;17.20;89.50;;;;;;5082362;28;20647;-69
2022/05/11 06:20:02;;;;;;;11.18;3.08;;;17.20;89.50;;;;;;5084852;28;20647;-70
2022/05/11 06:22:29;;;;;;;5.97;2.53;;;17.20;89.50;;;;;;5080964;28;20020;-70
2022/05/11 06:24:55;;;;;;;6.85;2.80;;;17.20;89.40;;;;;;5085628;28;20704;-69
2022/05/11 06:27:26;;;;;;;8.23;3.33;;;17.20;89.30;;;;;;5084597;28;20024;-68
2022/05/11 06:29:58;;;;;;;6.25;2.42;;;17.20;89.20;;;;;;5078209;28;20357;-69
2022/05/11 06:32:26;;;;;;;8.05;3.38;;;17.20;89.20;;;;;;5080949;28;20088;-68
2022/05/11 06:34:54;;;;;;;11.98;3.83;;;17.20;89.10;;;;;;5084096;28;20024;-67
2022/05/11 06:37:22;;;;;;;5.97;2.40;;;17.20;89.00;;;;;;5079433;28;20111;-69
2022/05/11 06:39:49;;;;;;;11.07;2.70;;;17.20;89.00;;;;;;5083741;28;20076;-70
2022/05/11 06:42:16;;;;;;;14.10;2.97;;;17.20;88.90;;;;;;5081193;28;20077;-69
2022/05/11 06:44:43;;;;;;;13.40;2.83;;;17.20;88.80;;;;;;5082982;28;20490;-70
2022/05/11 06:47:09;;;;;;;12.98;3.90;;;17.20;88.70;;;;;;5085799;28;20043;-69
2022/05/11 06:49:36;;;;;;;12.95;3.15;;;17.30;89.30;;;;;;5082317;28;20135;-68
2022/05/11 06:52:04;;;;;;;14.10;3.20;;;17.30;88.70;;;;;;5082859;28;20047;-69
2022/05/11 07:00:00;;;;;;;11.32;2.65;;;17.30;88.50;;;;;;5087060;28;20131;-68
2022/05/11 07:02:26;;;;;;;8.68;2.90;;;17.30;88.40;;;;;;5082005;28;20039;-69
2022/05/11 07:04:53;;;;;;;17.67;3.40;;;17.30;88.30;;;;;;5082508;28;21404;-69
2022/05/11 07:07:19;;;;;;;10.10;2.75;;;17.30;88.30;;;;;;5081798;28;20055;-68
2022/05/11 07:09:46;;;;;;;20.27;3.63;;;17.30;88.50;;;;;;5084637;28;20360;-69
2022/05/11 07:12:20;;;;;;;17.52;3.35;;;17.40;88.60;;;;;;5082140;28;20106;-68
2022/05/11 07:14:49;;;;;;;18.73;4.45;;;17.30;88.50;;;;;;5082431;28;20063;-69
2022/05/11 07:17:24;;;;;;;21.42;3.70;;;17.40;88.40;;;;;;5085484;28;20029;-68
2022/05/11 07:19:51;;;;;;;9.93;3.45;;;17.40;88.30;;;;;;5081397;28;20048;-70
2022/05/11 07:22:17;;;;;;;8.60;3.25;;;17.40;88.20;;;;;;5083077;28;20024;-70
2022/05/11 07:24:44;;;;;;;10.15;2.63;;;17.40;88.10;;;;;;5080962;28;20028;-69
2022/05/11 07:27:10;;;;;;;7.20;2.28;;;17.40;88.00;;;;;;5079660;28;20024;-70
2022/05/11 07:29:37;;;;;;;9.35;2.33;;;17.50;87.90;;;;;;5081725;28;20103;-69
2022/05/11 07:32:04;;;;;;;11.70;3.00;;;17.50;87.90;;;;;;5081286;28;20059;-68
2022/05/11 07:34:30;;;;;;;15.00;3.22;;;17.50;87.80;;;;;;5082313;28;20360;-68
2022/05/11 07:36:57;;;;;;;6.45;2.58;;;17.50;87.60;;;;;;5081153;28;20012;-69
2022/05/11 07:39:24;;;;;;;8.13;3.08;;;17.50;87.40;;;;;;5080667;28;20471;-70
2022/05/11 07:41:50;;;;;;;15.10;2.90;;;17.50;87.30;;;;;;5075898;28;20115;-68
2022/05/11 07:44:17;;;;;;;6.97;2.92;;;17.60;87.30;;;;;;5083089;28;20036;-68
2022/05/11 07:46:44;;;;;;;10.18;3.00;;;17.60;87.20;;;;;;5080238;28;20503;-69
2022/05/11 07:49:11;;;;;;;9.65;3.47;;;17.60;87.10;;;;;;5076447;28;20383;-69
2022/05/11 07:51:38;;;;;;;10.13;2.75;;;17.60;87.00;;;;;;5081723;28;20024;-70
2022/05/11 07:54:05;;;;;;;24.65;3.60;;;17.60;86.90;;;;;;5082622;28;20403;-68
2022/05/11 08:02:01;;;;;;;7.22;3.42;;;17.70;86.70;;;;;;5081294;28;21256;-67
2022/05/11 08:04:27;;;;;;;7.75;2.63;;;17.80;86.70;;;;;;5081703;28;20612;-69
2022/05/11 08:06:54;;;;;;;10.38;2.53;;;17.80;86.60;;;;;;5081749;28;20031;-71
2022/05/11 08:09:21;;;;;;;10.98;3.70;;;17.80;86.50;;;;;;5076463;28;20020;-68
2022/05/11 08:11:48;;;;;;;6.10;3.78;;;17.80;86.40;;;;;;5081032;28;20576;-70
2022/05/11 08:14:15;;;;;;;9.57;2.15;;;17.90;86.40;;;;;;5085461;28;20020;-68
2022/05/11 08:16:42;;;;;;;7.72;2.20;;;17.90;86.30;;;;;;5077575;28;20041;-69
2022/05/11 08:19:09;;;;;;;10.02;3.45;;;17.90;86.10;;;;;;5081415;28;20020;-70
2022/05/11 08:21:35;;;;;;;10.85;3.47;;;18.00;86.00;;;;;;5081808;28;20068;-70
2022/05/11 08:24:03;;;;;;;11.40;3.22;;;18.00;85.90;;;;;;5082591;28;20497;-70
2022/05/11 08:26:29;;;;;;;7.45;2.95;;;18.00;85.70;;;;;;5084642;28;20024;-69
2022/05/11 08:28:56;;;;;;;24.73;3.42;;;18.00;85.50;;;;;;5080132;28;20103;-68
2022/05/11 08:34:07;;;;;;;18.42;3.60;;;18.10;85.50;;;;;;5082129;28;20375;-68
2022/05/11 08:36:34;;;;;;;11.70;2.50;;;18.20;85.50;;;;;;5081817;28;20491;-68
2022/05/11 08:39:04;;;;;;;14.63;2.45;;;18.30;85.40;;;;;;5081877;28;20385;-69
2022/05/11 08:41:33;;;;;;;20.77;3.97;;;18.30;85.40;;;;;;5084394;28;20024;-68
2022/05/11 08:44:24;;;;;;;16.42;4.47;;;18.30;85.40;;;;;;5079982;28;20032;-69
2022/05/11 08:47:07;;;;;;;20.23;2.95;;;18.40;85.60;;;;;;5078495;28;20028;-70
2022/05/11 08:50:04;;;;;;;17.13;3.53;;;18.40;85.80;;;;;;5082195;28;20670;-69
2022/05/11 08:52:56;;;;;;;12.38;3.17;;;18.40;86.10;;;;;;5082565;28;20024;-68
2022/05/11 08:55:49;;;;;;;8.50;2.85;;;18.50;86.20;;;;;;5070942;28;20107;-69
2022/05/11 08:58:30;;;;;;;13.60;3.15;;;18.50;86.10;;;;;;5077714;28;20008;-69
2022/05/11 09:00:58;;;;;;;9.02;4.30;;;18.50;85.90;;;;;;5079032;28;20107;-70
2022/05/11 09:03:43;;;;;;;19.13;4.00;;;18.50;85.70;;;;;;5082317;28;20465;-69
2022/05/11 09:06:30;;;;;;;14.30;3.38;;;18.60;85.80;;;;;;5082064;28;20031;-69
2022/05/11 09:09:03;;;;;;;12.20;3.22;;;18.60;85.90;;;;;;5080720;28;20028;-70
2022/05/11 09:11:46;;;;;;;16.08;3.63;;;18.60;85.50;;;;;;5082358;28;20024;-69
2022/05/11 09:14:16;;;;;;;14.70;3.75;;;18.60;84.90;;;;;;5084675;28;20058;-70
2022/05/11 09:16:45;;;;;;;15.40;3.38;;;18.60;84.60;;;;;;5081047;28;20566;-70
2022/05/11 09:19:22;;;;;;;8.85;3.22;;;18.70;84.40;;;;;;5083510;28;20020;-68
2022/05/11 09:22:17;;;;;;;8.43;4.05;;;18.70;84.10;;;;;;5077548;28;20096;-68
2022/05/11 09:24:51;;;;;;;14.35;3.72;;;18.60;83.80;;;;;;5075633;28;20059;-70
2022/05/11 09:27:30;;;;;;;10.40;2.80;;;18.70;83.60;;;;;;5082260;28;20024;-68
2022/05/11 09:30:21;;;;;;;13.23;3.40;;;18.70;83.30;;;;;;5082420;28;20049;-70
2022/05/11 09:32:48;;;;;;;16.45;4.28;;;18.70;82.90;;;;;;5079230;28;20031;-69
2022/05/11 09:35:21;;;;;;;19.45;4.57;;;18.70;82.60;;;;;;5084416;28;20042;-68
2022/05/11 09:38:21;;;;;;;20.55;4.63;;;18.70;81.90;;;;;;5085774;28;20522;-70
2022/05/11 09:40:58;;;;;;;22.15;4.63;;;18.70;81.10;;;;;;5069916;28;20026;-70
2022/05/11 09:43:33;;;;;;;16.20;3.75;;;18.80;80.10;;;;;;5077770;28;20105;-70
2022/05/11 09:46:14;;;;;;;12.27;3.20;;;18.80;79.70;;;;;;5080066;28;20050;-67
2022/05/11 09:48:52;;;;;;;17.98;4.07;;;18.80;79.20;;;;;;5082139;28;20028;-70
2022/05/11 09:51:29;;;;;;;15.82;3.80;;;18.80;78.70;;;;;;5078836;28;20054;-68
2022/05/11 09:54:33;;;;;;;16.65;3.50;;;18.90;78.10;;;;;;5079736;28;20021;-70
2022/05/11 09:57:17;;;;;;;17.95;4.57;;;18.90;77.40;;;;;;5081041;28;20016;-68
2022/05/11 09:59:52;;;;;;;12.98;3.08;;;19.00;76.70;;;;;;5080216;28;20058;-68
2022/05/11 10:02:32;;;;;;;15.52;4.00;;;19.10;76.00;;;;;;5081679;28;20052;-68
2022/05/11 10:05:24;;;;;;;13.23;3.22;;;19.20;75.40;;;;;;5075691;28;20102;-70
2022/05/11 10:07:56;;;;;;;16.20;3.78;;;19.30;74.90;;;;;;5083553;28;20484;-70
2022/05/11 10:10:46;;;;;;;10.38;3.20;;;19.40;73.90;;;;;;5082575;28;20023;-70
2022/05/11 10:13:23;;;;;;;16.92;4.68;;;19.40;72.80;;;;;;5067790;28;20027;-69
2022/05/11 10:21:54;;;;;;;12.57;3.35;;;19.80;71.70;;;;;;5084455;28;20509;-68
2022/05/11 10:24:43;;;;;;;15.48;3.55;;;19.90;71.40;;;;;;5083217;28;20028;-69
2022/05/11 10:27:48;;;;;;;12.93;3.75;;;19.90;71.30;;;;;;5086687;28;20156;-68
2022/05/11 10:30:28;;;;;;;15.35;4.07;;;20.00;71.10;;;;;;5083044;28;20016;-68
2022/05/11 10:33:11;;;;;;;14.70;4.05;;;20.10;70.70;;;;;;5081683;28;20035;-68
2022/05/11 10:35:58;;;;;;;20.65;4.70;;;20.10;70.40;;;;;;5080674;28;20073;-68
2022/05/11 10:38:43;;;;;;;17.02;5.95;;;20.10;70.20;;;;;;5082630;28;20368;-70
2022/05/11 10:41:41;;;;;;;15.90;3.17;;;20.10;70.10;;;;;;5083050;28;20372;-68
2022/05/11 10:44:19;;;;;;;19.38;4.90;;;20.10;70.20;;;;;;5078214;28;20119;-68
2022/05/11 10:47:26;;;;;;;17.50;4.07;;;20.00;70.20;;;;;;5082803;28;20032;-68
2022/05/11 10:50:14;;;;;;;10.88;3.97;;;20.00;70.30;;;;;;5031066;28;20107;-68
2022/05/11 10:52:50;;;;;;;17.35;3.83;;;20.00;70.30;;;;;;5081660;28;20020;-65
2022/05/11 10:55:42;;;;;;;15.73;4.10;;;19.90;70.20;;;;;;5083353;28;20624;-68
2022/05/11 10:58:45;;;;;;;11.40;3.60;;;19.90;69.90;;;;;;5083965;28;21301;-68
2022/05/11 11:01:15;;;;;;;16.45;3.03;;;20.00;70.00;;;;;;5081995;28;20399;-69
2022/05/11 11:04:14;;;;;;;20.33;5.05;;;20.00;70.00;;;;;;5084577;28;20024;-69
2022/05/11 11:07:14;;;;;;;14.00;3.67;;;20.10;70.10;;;;;;5071943;28;20032;-68
2022/05/11 11:10:08;;;;;;;9.68;3.55;;;20.20;70.20;;;;;;5083385;28;20025;-68
2022/05/11 11:12:57;;;;;;;17.77;4.35;;;20.20;70.00;;;;;;5080214;28;20020;-67
2022/05/11 11:15:27;;;;;;;15.00;4.10;;;20.30;69.90;;;;;;5082835;28;20100;-68
2022/05/11 11:17:56;;;;;;;11.07;2.95;;;20.30;69.80;;;;;;5082174;28;20367;-68
2022/05/11 11:20:23;;;;;;;11.77;3.15;;;20.40;69.10;;;;;;5083308;28;20036;-68
2022/05/11 11:23:13;;;;;;;13.13;3.38;;;20.40;68.80;;;;;;5075332;28;20123;-67
2022/05/11 11:25:54;;;;;;;14.77;3.53;;;20.40;68.50;;;;;;5082860;28;20035;-68
2022/05/11 11:28:27;;;;;;;18.25;4.25;;;20.50;68.50;;;;;;5082287;28;20082;-68
2022/05/11 11:30:59;;;;;;;15.30;3.67;;;20.50;68.00;;;;;;5077860;28;20024;-68
2022/05/11 11:33:32;;;;;;;13.85;4.05;;;20.50;67.80;;;;;;5086299;28;20399;-68
2022/05/11 11:36:00;;;;;;;20.13;4.13;;;20.60;67.70;;;;;;5081236;28;20500;-68
2022/05/11 11:38:41;;;;;;;13.10;3.22;;;20.60;67.70;;;;;;5080838;28;20115;-68
2022/05/11 11:41:28;;;;;;;11.60;3.15;;;20.70;67.40;;;;;;5081161;28;20028;-68
2022/05/11 11:44:04;;;;;;;18.27;3.38;;;20.70;67.40;;;;;;5079349;28;20093;-68
2022/05/11 11:46:44;;;;;;;13.50;3.92;;;20.80;67.50;;;;;;5081757;28;20456;-70
2022/05/11 11:49:21;;;;;;;11.23;4.22;;;20.80;67.30;;;;;;5081778;28;20379;-68
2022/05/11 11:51:53;;;;;;;12.30;3.90;;;20.80;67.00;;;;;;5082016;28;20574;-68
2022/05/11 11:54:38;;;;;;;12.70;3.08;;;20.90;66.90;;;;;;5081990;28;20039;-69
2022/05/11 11:57:08;;;;;;;12.30;3.50;;;20.90;66.90;;;;;;5077826;28;20047;-68
2022/05/11 11:59:40;;;;;;;18.00;4.45;;;21.00;66.80;;;;;;5083637;28;20043;-68
2022/05/11 12:02:15;;;;;;;12.27;4.28;;;21.00;66.50;;;;;;5080776;28;20035;-68
2022/05/11 12:04:47;;;;;;;15.95;3.17;;;21.00;66.40;;;;;;5079714;28;20124;-71
2022/05/11 12:16:10;;;;;;;14.60;3.42;;;21.00;66.00;;;;;;5078010;28;20073;-71
2022/05/11 12:18:39;;;;;;;17.58;3.65;;;20.90;66.00;;;;;;5080786;28;20016;-68
2022/05/11 12:21:23;;;;;;;10.73;3.20;;;20.90;66.10;;;;;;5079646;28;20048;-68
2022/05/11 12:23:51;;;;;;;14.77;3.97;;;20.90;66.50;;;;;;5082210;28;20423;-68
2022/05/11 12:26:27;;;;;;;12.63;3.65;;;20.90;66.90;;;;;;5081304;28;20027;-68
2022/05/11 12:31:54;;;;;;;9.77;2.80;;;20.90;66.90;;;;;;5080265;28;20070;-68
2022/05/11 12:34:23;;;;;;;11.25;3.30;;;21.00;66.70;;;;;;5079490;28;20012;-70
2022/05/11 12:36:51;;;;;;;16.83;4.28;;;21.00;66.50;;;;;;5079352;28;20489;-70
2022/05/11 12:39:35;;;;;;;9.35;2.97;;;21.00;66.30;;;;;;5081581;28;20024;-69
2022/05/11 12:42:03;;;;;;;14.40;4.30;;;21.00;66.20;;;;;;5080043;28;20024;-70
2022/05/11 12:44:33;;;;;;;14.38;3.92;;;21.00;66.00;;;;;;5079682;28;20058;-68
2022/05/11 12:47:04;;;;;;;18.92;2.90;;;21.10;65.90;;;;;;5079077;28;20078;-71
2022/05/11 12:49:30;;;;;;;14.73;3.53;;;21.10;65.60;;;;;;5084937;28;20024;-69
2022/05/11 12:52:05;;;;;;;16.23;4.18;;;21.10;66.30;;;;;;5078770;28;20030;-67
2022/05/11 12:54:32;;;;;;;18.73;3.90;;;21.10;65.50;;;;;;5082589;28;20379;-69
2022/05/11 12:57:08;;;;;;;13.93;3.55;;;21.10;65.60;;;;;;5080368;28;20032;-70
2022/05/11 12:59:36;;;;;;;16.10;4.03;;;21.10;65.30;;;;;;5080054;28;20390;-71
2022/05/11 13:02:26;;;;;;;14.70;3.25;;;21.20;65.20;;;;;;5080462;28;20032;-68
2022/05/11 13:04:56;;;;;;;13.65;3.38;;;21.20;65.30;;;;;;5082718;28;20043;-69
2022/05/11 13:07:28;;;;;;;11.60;3.10;;;21.20;65.30;;;;;;5080843;28;20024;-68
2022/05/11 13:09:57;;;;;;;15.50;4.82;;;21.20;65.30;;;;;;5080226;28;20520;-71
2022/05/11 13:12:24;;;;;;;12.80;2.78;;;21.20;65.30;;;;;;5076672;28;20471;-70
2022/05/11 13:14:55;;;;;;;19.80;5.93;;;21.20;65.10;;;;;;5079547;28;20382;-70
2022/05/11 13:17:31;;;;;;;23.95;4.72;;;21.20;65.10;;;;;;5075300;28;20027;-71
2022/05/11 13:20:09;;;;;;;16.88;3.83;;;21.20;65.30;;;;;;5074428;28;20044;-69
2022/05/11 13:22:35;;;;;;;18.73;5.15;;;21.20;65.30;;;;;;5082393;28;20445;-69
2022/05/11 13:25:06;;;;;;;9.73;3.33;;;21.20;65.30;;;;;;5081155;28;20115;-69
2022/05/11 13:27:38;;;;;;;18.73;4.50;;;21.10;65.30;;;;;;5082423;28;20643;-71
2022/05/11 13:30:20;;;;;;;15.80;2.70;;;21.10;65.20;;;;;;5083675;28;20023;-69
2022/05/11 13:33:07;;;;;;;17.33;3.90;;;21.10;65.30;;;;;;5082289;28;20102;-70
2022/05/11 13:35:36;;;;;;;18.67;3.92;;;21.10;65.50;;;;;;5079601;28;20786;-71
2022/05/11 13:38:12;;;;;;;15.82;4.65;;;21.10;65.60;;;;;;5085553;28;20104;-69
2022/05/11 13:40:56;;;;;;;19.73;4.65;;;21.10;65.70;;;;;;5082372;28;20103;-71
2022/05/11 13:43:45;;;;;;;17.58;4.00;;;21.00;65.60;;;;;;5080961;28;20032;-70
2022/05/11 13:46:35;;;;;;;19.27;3.72;;;21.00;65.50;;;;;;5077893;28;20429;-68